Time;durP1;ratioP1;P1;durP2;ratioP2;P2;SDS_P1;SDS_P2;PMS_P1;PMS_P2;Temp;Humidity;BMP_temperature;BMP_pressure;BME280_temperature;BME280_humidity;BME280_pressure;Samples;Min_cycle;Max_cycle;Signal;HPM_P1;HPM_P2
2024/01/15 00:00:41;;;;;;;;;;;;;;;3.25;57.89;99283.81;5392717;32;34771;-71
2024/01/15 00:03:43;;;;;;;;;;;;;;;3.18;58.28;99270.16;5401202;32;35501;-68
2024/01/15 00:06:49;;;;;;;;;;;;;;;2.93;58.57;99256.13;5394207;32;35115;-65
2024/01/15 00:09:51;;;;;;;;;;;;;;;2.66;60.00;99262.88;5401382;32;34584;-71
2024/01/15 00:12:53;;;;;;;;;;;;;;;1.99;62.39;99261.84;5394120;32;34683;-72
2024/01/15 00:15:56;;;;;;;;;;;;;;;2.82;59.87;99263.31;5403533;32;34921;-71
2024/01/15 00:18:58;;;;;;;;;;;;;;;2.57;60.95;99263.06;5389160;32;34560;-72
2024/01/15 00:22:00;;;;;;;;;;;;;;;3.19;58.82;99256.28;5403263;32;34561;-72
2024/01/15 00:25:03;;;;;;;;;;;;;;;3.08;59.07;99234.09;5386182;32;34382;-73
2024/01/15 00:28:05;;;;;;;;;;;;;;;3.00;58.84;99221.31;5388867;32;33874;-67
2024/01/15 00:31:08;;;;;;;;;;;;;;;3.51;57.30;99212.97;5370366;32;35131;-71
2024/01/15 00:34:10;;;;;;;;;;;;;;;3.55;57.12;99203.34;5402578;32;34989;-67
2024/01/15 00:37:13;;;;;;;;;;;;;;;3.74;56.37;99194.97;5395361;32;35268;-73
2024/01/15 00:40:15;;;;;;;;;;;;;;;3.08;58.40;99193.41;5402043;32;35847;-73
2024/01/15 00:43:18;;;;;;;;;;;;;;;3.67;57.02;99203.84;5408399;32;35137;-67
2024/01/15 00:46:21;;;;;;;;;;;;;;;3.62;57.12;99195.31;5404984;32;34682;-67
2024/01/15 00:49:24;;;;;;;;;;;;;;;3.69;56.93;99196.84;5410087;32;35461;-67
2024/01/15 00:52:26;;;;;;;;;;;;;;;3.27;57.52;99211.91;5391188;32;35537;-67
2024/01/15 00:55:28;;;;;;;;;;;;;;;2.91;59.58;99206.84;5408909;32;34788;-68
2024/01/15 00:58:31;;;;;;;;;;;;;;;3.30;58.89;99192.81;5390935;32;35524;-71
2024/01/15 01:01:33;;;;;;;;;;;;;;;3.35;58.68;99196.09;5403908;32;34732;-72
2024/01/15 01:04:35;;;;;;;;;;;;;;;3.93;56.32;99195.25;5407885;32;35173;-69
2024/01/15 01:07:37;;;;;;;;;;;;;;;3.69;57.22;99191.66;5404965;32;35778;-68
2024/01/15 01:10:39;;;;;;;;;;;;;;;3.60;57.43;99181.50;5395814;32;34389;-68
2024/01/15 01:13:42;;;;;;;;;;;;;;;3.18;59.02;99181.88;5392328;32;34531;-67
2024/01/15 01:16:44;;;;;;;;;;;;;;;3.15;59.25;99178.50;5409309;32;34240;-67
2024/01/15 01:19:46;;;;;;;;;;;;;;;2.70;61.20;99171.97;5405717;32;35052;-67
2024/01/15 01:22:48;;;;;;;;;;;;;;;3.45;58.36;99159.44;5399137;32;35461;-71
2024/01/15 01:25:51;;;;;;;;;;;;;;;3.23;58.29;99159.22;5393586;32;34801;-70
2024/01/15 01:28:53;;;;;;;;;;;;;;;2.70;59.98;99164.19;5405287;32;35124;-72
2024/01/15 01:31:56;;;;;;;;;;;;;;;1.97;62.53;99155.63;5395554;32;35041;-70
2024/01/15 01:34:59;;;;;;;;;;;;;;;1.69;63.73;99157.19;5390506;32;35606;-67
2024/01/15 01:38:01;;;;;;;;;;;;;;;2.15;63.76;99159.53;5392586;32;35151;-68
2024/01/15 01:41:03;;;;;;;;;;;;;;;1.62;65.15;99157.31;5393067;32;35425;-70
2024/01/15 01:44:05;;;;;;;;;;;;;;;2.55;62.60;99141.22;5405316;32;34726;-67
2024/01/15 01:47:08;;;;;;;;;;;;;;;3.23;59.87;99124.63;5410280;32;34571;-71
2024/01/15 01:50:10;;;;;;;;;;;;;;;2.80;60.98;99117.22;5378806;32;35253;-71
2024/01/15 01:53:12;;;;;;;;;;;;;;;2.86;60.37;99123.06;5383212;32;35369;-68
2024/01/15 01:56:14;;;;;;;;;;;;;;;1.88;63.61;99122.19;5377115;32;35545;-68
2024/01/15 01:59:17;;;;;;;;;;;;;;;2.15;63.31;99129.28;5407725;32;35059;-68
2024/01/15 02:02:19;;;;;;;;;;;;;;;2.79;60.73;99093.00;5392429;32;34203;-67
2024/01/15 02:05:21;;;;;;;;;;;;;;;2.07;63.32;99100.13;5388873;32;34949;-67
2024/01/15 02:08:24;;;;;;;;;;;;;;;2.51;62.49;99103.25;5407812;32;34872;-66
2024/01/15 02:11:26;;;;;;;;;;;;;;;1.44;65.56;99105.09;5404141;32;35242;-68
2024/01/15 02:14:28;;;;;;;;;;;;;;;1.22;66.82;99089.16;5409034;32;35071;-69
2024/01/15 02:17:31;;;;;;;;;;;;;;;1.10;68.11;99084.28;5391105;32;34809;-71
2024/01/15 02:20:33;;;;;;;;;;;;;;;1.21;67.43;99092.63;5391499;32;35666;-71
2024/01/15 02:23:35;;;;;;;;;;;;;;;1.36;67.82;99089.72;5401790;32;34264;-67
2024/01/15 02:26:38;;;;;;;;;;;;;;;2.13;65.42;99107.75;5388865;32;34374;-68
2024/01/15 02:29:40;;;;;;;;;;;;;;;1.43;67.24;99103.38;5394552;32;36117;-70
2024/01/15 02:32:42;;;;;;;;;;;;;;;1.21;68.46;99108.16;5404419;32;34780;-69
2024/01/15 02:35:46;;;;;;;;;;;;;;;1.23;68.99;99083.12;5409805;32;35693;-67
2024/01/15 02:38:48;;;;;;;;;;;;;;;1.38;68.81;99087.94;5401967;32;35478;-67
2024/01/15 02:41:50;;;;;;;;;;;;;;;1.60;67.86;99077.94;5406773;32;35226;-67
2024/01/15 02:44:53;;;;;;;;;;;;;;;1.66;67.82;99075.19;5394206;32;34879;-67
2024/01/15 02:47:55;;;;;;;;;;;;;;;0.94;70.09;99063.87;5404596;32;35497;-71
2024/01/15 02:50:57;;;;;;;;;;;;;;;1.27;69.43;99069.19;5394069;32;34741;-68
2024/01/15 02:53:59;;;;;;;;;;;;;;;1.98;67.60;99071.81;5404975;32;35142;-68
2024/01/15 02:57:02;;;;;;;;;;;;;;;1.46;68.76;99075.66;5394296;32;34595;-69
2024/01/15 03:00:04;;;;;;;;;;;;;;;2.25;66.44;99059.88;5404283;32;34894;-72
2024/01/15 03:03:06;;;;;;;;;;;;;;;1.70;67.30;99068.22;5390280;32;34360;-71
2024/01/15 03:06:09;;;;;;;;;;;;;;;2.00;67.03;99074.41;5408738;32;34920;-73
2024/01/15 03:09:11;;;;;;;;;;;;;;;1.93;66.57;99057.28;5390401;32;35054;-71
2024/01/15 03:12:13;;;;;;;;;;;;;;;2.37;65.46;99030.19;5398778;32;35310;-72
2024/01/15 03:15:15;;;;;;;;;;;;;;;2.14;65.61;99030.81;5390092;32;35931;-67
2024/01/15 03:18:17;;;;;;;;;;;;;;;1.25;67.77;99030.41;5408883;32;35237;-70
2024/01/15 03:21:20;;;;;;;;;;;;;;;0.98;70.82;99023.28;5401797;32;34219;-68
2024/01/15 03:24:22;;;;;;;;;;;;;;;1.31;69.46;99024.25;5401954;32;34347;-68
2024/01/15 03:27:25;;;;;;;;;;;;;;;1.25;69.92;99025.25;5408688;32;36862;-71
2024/01/15 03:30:28;;;;;;;;;;;;;;;2.12;67.87;99007.50;5403478;32;34577;-67
2024/01/15 03:33:30;;;;;;;;;;;;;;;1.72;67.51;99006.84;5408245;32;34539;-70
2024/01/15 03:36:33;;;;;;;;;;;;;;;2.00;66.53;99025.16;5403546;32;34728;-72
2024/01/15 03:39:35;;;;;;;;;;;;;;;1.75;67.76;99030.97;5403001;32;34878;-67
2024/01/15 03:42:37;;;;;;;;;;;;;;;1.91;67.58;99046.94;5383531;32;35360;-68
2024/01/15 03:45:39;;;;;;;;;;;;;;;1.52;68.17;99034.09;5390228;32;34231;-67
2024/01/15 03:48:41;;;;;;;;;;;;;;;1.18;68.50;99036.62;5395196;32;34430;-70
2024/01/15 03:51:44;;;;;;;;;;;;;;;1.73;68.24;99050.00;5404700;32;34745;-68
2024/01/15 03:54:47;;;;;;;;;;;;;;;2.08;67.24;99056.91;5394263;32;34105;-70
2024/01/15 03:57:49;;;;;;;;;;;;;;;2.33;65.33;99047.59;5403157;32;34470;-68
2024/01/15 04:00:51;;;;;;;;;;;;;;;1.51;68.77;99029.81;5392171;32;34930;-69
2024/01/15 04:03:53;;;;;;;;;;;;;;;1.72;67.63;99050.88;5393609;32;34439;-72
2024/01/15 04:06:56;;;;;;;;;;;;;;;1.86;67.24;99038.44;5389566;32;34629;-67
2024/01/15 04:09:59;;;;;;;;;;;;;;;2.82;63.66;99037.56;5407763;32;34559;-72
2024/01/15 04:13:03;;;;;;;;;;;;;;;2.62;63.58;99041.56;5388026;32;34773;-71
2024/01/15 04:16:20;;;;;;;;;;;;;;;2.24;65.02;99027.06;5405997;32;35046;-68
2024/01/15 04:19:45;;;;;;;;;;;;;;;2.11;65.78;99010.16;5390313;32;35644;-68
2024/01/15 04:23:06;;;;;;;;;;;;;;;2.01;66.32;98994.00;5373041;32;36156;-72
2024/01/15 04:26:36;;;;;;;;;;;;;;;1.87;66.20;98991.78;5364788;32;35501;-67
2024/01/15 04:29:48;;;;;;;;;;;;;;;1.70;66.38;98998.28;5351556;32;35359;-68
2024/01/15 04:32:51;;;;;;;;;;;;;;;2.10;65.99;98998.09;5368166;32;34322;-72
2024/01/15 04:35:53;;;;;;;;;;;;;;;2.01;66.15;98998.34;5352967;32;34668;-68
2024/01/15 04:38:55;;;;;;;;;;;;;;;1.73;67.09;98990.41;5366944;32;35419;-68
2024/01/15 04:41:57;;;;;;;;;;;;;;;2.14;65.69;98979.84;5369132;32;35054;-72
2024/01/15 04:44:59;;;;;;;;;;;;;;;1.38;67.68;98981.81;5364133;32;34083;-67
2024/01/15 04:48:02;;;;;;;;;;;;;;;1.58;66.25;99000.28;5369062;32;35457;-71
2024/01/15 04:51:04;;;;;;;;;;;;;;;2.35;65.46;98990.50;5351531;32;34680;-68
2024/01/15 04:54:06;;;;;;;;;;;;;;;2.26;64.46;98982.97;5354197;32;34263;-67
2024/01/15 04:57:09;;;;;;;;;;;;;;;2.54;63.67;98981.28;5368649;32;35051;-70
2024/01/15 05:00:12;;;;;;;;;;;;;;;1.93;65.32;98990.75;5360876;32;34654;-67
2024/01/15 05:03:14;;;;;;;;;;;;;;;2.03;65.68;98989.63;5355803;32;35084;-68
2024/01/15 05:06:16;;;;;;;;;;;;;;;1.13;67.97;98991.88;5351266;32;34111;-69
2024/01/15 05:09:19;;;;;;;;;;;;;;;1.18;67.78;99000.41;5369011;32;35084;-71
2024/01/15 05:12:21;;;;;;;;;;;;;;;1.65;66.69;99008.75;5365061;32;34262;-71
2024/01/15 05:15:23;;;;;;;;;;;;;;;1.76;67.52;98998.12;5367027;32;35076;-71
2024/01/15 05:18:25;;;;;;;;;;;;;;;1.38;68.81;99014.59;5367181;32;35443;-69
2024/01/15 05:21:27;;;;;;;;;;;;;;;1.49;68.73;99018.66;5362143;32;35289;-71
2024/01/15 05:24:30;;;;;;;;;;;;;;;1.08;69.12;99020.44;5366325;32;34687;-67
2024/01/15 05:27:32;;;;;;;;;;;;;;;1.80;68.09;99004.91;5363480;32;33679;-72
2024/01/15 05:30:34;;;;;;;;;;;;;;;1.37;68.68;99011.16;5368457;32;35272;-70
2024/01/15 05:33:37;;;;;;;;;;;;;;;2.01;67.12;98995.75;5364721;32;35239;-69
2024/01/15 05:36:39;;;;;;;;;;;;;;;2.30;65.89;98989.75;5386245;32;34997;-71
2024/01/15 05:39:41;;;;;;;;;;;;;;;1.87;66.40;98996.13;5396606;32;35557;-70
2024/01/15 05:42:43;;;;;;;;;;;;;;;1.97;66.23;99000.16;5403198;32;35226;-68
2024/01/15 05:45:45;;;;;;;;;;;;;;;2.25;65.29;99007.19;5394943;32;34750;-70
2024/01/15 05:48:48;;;;;;;;;;;;;;;2.14;65.38;98999.72;5405667;32;34865;-69
2024/01/15 05:51:51;;;;;;;;;;;;;;;2.05;65.55;99005.97;5409606;32;34471;-68
2024/01/15 05:54:54;;;;;;;;;;;;;;;2.42;64.71;99007.56;5390346;32;34900;-68
2024/01/15 05:57:56;;;;;;;;;;;;;;;1.82;66.81;99010.94;5390924;32;34797;-68
2024/01/15 06:00:59;;;;;;;;;;;;;;;1.91;66.11;99002.91;5407182;32;35290;-69
2024/01/15 06:04:01;;;;;;;;;;;;;;;2.33;64.56;99002.66;5402693;32;34961;-72
2024/01/15 06:07:04;;;;;;;;;;;;;;;1.88;65.49;98995.22;5408871;32;35531;-68
2024/01/15 06:10:06;;;;;;;;;;;;;;;1.84;65.81;98989.25;5392598;32;34198;-73
2024/01/15 06:13:08;;;;;;;;;;;;;;;1.69;66.68;98991.41;5409138;32;34884;-70
2024/01/15 06:16:14;;;;;;;;;;;;;;;2.12;65.88;98978.16;5405080;32;34409;-68
2024/01/15 06:19:16;;;;;;;;;;;;;;;2.52;63.80;98977.06;5390074;32;34226;-68
2024/01/15 06:22:18;;;;;;;;;;;;;;;2.73;62.01;98986.81;5398891;32;34877;-70
2024/01/15 06:25:20;;;;;;;;;;;;;;;2.88;61.04;98995.87;5386048;32;34340;-77
2024/01/15 06:28:22;;;;;;;;;;;;;;;2.45;62.31;98984.16;5381148;32;34696;-72
2024/01/15 06:31:24;;;;;;;;;;;;;;;2.41;62.34;98991.16;5401794;32;34688;-69
2024/01/15 06:34:26;;;;;;;;;;;;;;;2.10;63.14;98993.75;5390101;32;35422;-77
2024/01/15 06:37:28;;;;;;;;;;;;;;;1.92;63.34;98996.81;5386657;32;34724;-77
2024/01/15 06:40:30;;;;;;;;;;;;;;;1.92;64.21;98994.22;5402280;32;35104;-68
2024/01/15 06:43:32;;;;;;;;;;;;;;;2.05;63.01;98989.56;5393392;32;34338;-74
2024/01/15 06:46:34;;;;;;;;;;;;;;;1.83;63.24;99005.69;5388015;32;34467;-72
2024/01/15 06:49:36;;;;;;;;;;;;;;;1.46;64.76;99016.13;5383921;32;34647;-79
2024/01/15 06:52:38;;;;;;;;;;;;;;;0.63;68.05;99009.34;5385904;32;34265;-78
2024/01/15 06:55:40;;;;;;;;;;;;;;;1.45;65.31;99008.38;5399349;32;34920;-76
2024/01/15 06:58:42;;;;;;;;;;;;;;;1.26;67.45;99007.97;5399256;32;34377;-71
2024/01/15 07:01:44;;;;;;;;;;;;;;;0.60;69.00;99004.25;5399136;32;35355;-82
2024/01/15 07:04:46;;;;;;;;;;;;;;;0.41;70.13;99008.09;5386473;32;34003;-75
2024/01/15 07:07:49;;;;;;;;;;;;;;;1.26;68.44;99007.97;5401087;32;34776;-69
2024/01/15 07:10:51;;;;;;;;;;;;;;;1.93;65.80;99001.13;5387294;32;33931;-76
2024/01/15 07:13:53;;;;;;;;;;;;;;;1.87;66.30;99004.75;5378298;32;35165;-75
2024/01/15 07:16:57;;;;;;;;;;;;;;;1.87;66.38;98999.56;5408242;32;34515;-84
2024/01/15 07:20:00;;;;;;;;;;;;;;;1.74;66.19;98995.59;5394784;32;35930;-75
2024/01/15 07:23:02;;;;;;;;;;;;;;;1.77;65.79;99015.38;5372538;32;34142;-76
2024/01/15 07:26:09;;;;;;;;;;;;;;;1.80;65.39;99020.47;5389653;32;35650;-78
2024/01/15 07:29:11;;;;;;;;;;;;;;;1.56;65.64;99029.72;5376829;32;33706;-70
2024/01/15 07:32:13;;;;;;;;;;;;;;;1.00;68.35;99037.03;5399119;32;35285;-71
2024/01/15 07:35:15;;;;;;;;;;;;;;;1.33;68.11;99035.41;5392275;32;34041;-79
2024/01/15 07:38:17;;;;;;;;;;;;;;;1.29;68.04;99031.22;5402279;32;35462;-77
2024/01/15 07:41:28;;;;;;;;;;;;;;;1.43;68.00;99038.66;5398684;32;34241;-68
2024/01/15 07:44:33;;;;;;;;;;;;;;;1.25;68.20;99042.50;5400655;32;34352;-72
2024/01/15 07:47:40;;;;;;;;;;;;;;;1.27;68.45;99049.34;5403883;32;34276;-79
2024/01/15 07:50:45;;;;;;;;;;;;;;;1.50;68.06;99046.25;5397446;32;34040;-91
2024/01/15 07:53:48;;;;;;;;;;;;;;;1.76;66.83;99055.13;5387488;32;34141;-76
2024/01/15 07:56:59;;;;;;;;;;;;;;;1.38;67.40;99056.03;5383680;32;34183;-71
2024/01/15 08:00:04;;;;;;;;;;;;;;;1.18;68.36;99057.34;5383451;32;35600;-77
2024/01/15 08:03:20;;;;;;;;;;;;;;;1.22;68.58;99045.16;5388024;32;34392;-81
2024/01/15 08:06:23;;;;;;;;;;;;;;;1.41;68.52;99043.00;5394668;32;34787;-74
2024/01/15 08:09:27;;;;;;;;;;;;;;;2.13;67.36;99029.97;5388614;32;36252;-71
2024/01/15 08:12:30;;;;;;;;;;;;;;;2.12;66.31;99023.06;5389217;32;34408;-85
2024/01/15 08:15:32;;;;;;;;;;;;;;;2.13;66.26;99029.97;5380370;32;35845;-77
2024/01/15 08:18:36;;;;;;;;;;;;;;;2.65;61.85;99032.87;5400291;32;35506;-82
2024/01/15 08:21:39;;;;;;;;;;;;;;;2.89;59.69;99046.88;5384520;32;34549;-85
2024/01/15 08:24:41;;;;;;;;;;;;;;;2.72;58.76;99045.63;5381485;32;34480;-77
2024/01/15 08:27:43;;;;;;;;;;;;;;;2.98;56.47;99049.22;5401897;32;34701;-79
2024/01/15 08:30:45;;;;;;;;;;;;;;;2.88;55.19;99048.63;5388609;32;34178;-78
2024/01/15 08:33:48;;;;;;;;;;;;;;;2.84;54.21;99049.63;5399593;32;35095;-70
2024/01/15 08:36:51;;;;;;;;;;;;;;;3.11;52.10;99047.94;5404492;32;34533;-85
2024/01/15 08:39:53;;;;;;;;;;;;;;;3.22;51.67;99055.37;5385459;32;34314;-81
2024/01/15 08:42:58;;;;;;;;;;;;;;;3.36;51.67;99058.44;5396546;32;34316;-77
2024/01/15 08:46:03;;;;;;;;;;;;;;;3.65;50.63;99047.09;5401525;32;34322;-73
2024/01/15 08:49:05;;;;;;;;;;;;;;;3.41;51.00;99058.28;5392601;32;34412;-69
2024/01/15 08:52:08;;;;;;;;;;;;;;;3.57;50.90;99056.91;5401660;32;34656;-69
2024/01/15 08:55:15;;;;;;;;;;;;;;;3.88;50.33;99056.78;5385301;32;34936;-76
2024/01/15 08:58:17;;;;;;;;;;;;;;;3.74;49.35;99067.62;5379850;32;36448;-75
2024/01/15 09:01:20;;;;;;;;;;;;;;;3.19;51.55;99071.94;5378404;32;34971;-77
2024/01/15 09:04:30;;;;;;;;;;;;;;;3.73;50.20;99060.69;5371623;32;34396;-70
2024/01/15 09:07:32;;;;;;;;;;;;;;;3.71;50.23;99059.06;5382187;32;34001;-75
2024/01/15 09:10:34;;;;;;;;;;;;;;;3.25;51.34;99065.69;5398454;32;34023;-72
2024/01/15 09:13:37;;;;;;;;;;;;;;;3.43;50.40;99072.09;5388826;32;34503;-77
2024/01/15 09:16:41;;;;;;;;;;;;;;;3.34;51.58;99072.34;5375325;32;35894;-72
2024/01/15 09:19:44;;;;;;;;;;;;;;;4.39;48.83;99055.06;5377656;32;34187;-75
2024/01/15 09:22:46;;;;;;;;;;;;;;;3.75;49.66;99064.13;5398102;32;34976;-74
2024/01/15 09:25:49;;;;;;;;;;;;;;;3.02;51.20;99062.94;5394205;32;36467;-71
2024/01/15 09:28:52;;;;;;;;;;;;;;;3.24;50.74;99069.19;5382207;32;34578;-73
2024/01/15 09:31:57;;;;;;;;;;;;;;;2.87;51.97;99043.47;5382096;32;34373;-73
2024/01/15 09:35:02;;;;;;;;;;;;;;;3.59;50.15;99038.66;5382922;32;36703;-73
2024/01/15 09:38:05;;;;;;;;;;;;;;;3.31;50.88;99046.50;5395593;32;34399;-78
2024/01/15 09:41:11;;;;;;;;;;;;;;;3.79;50.01;99041.47;5379397;32;36101;-82
2024/01/15 09:44:15;;;;;;;;;;;;;;;3.73;49.95;99042.50;5403358;32;33092;-73
2024/01/15 09:47:18;;;;;;;;;;;;;;;3.83;49.18;99026.63;5393878;32;34936;-74
2024/01/15 09:50:22;;;;;;;;;;;;;;;4.75;47.14;99025.09;5387016;32;35570;-76
2024/01/15 09:53:25;;;;;;;;;;;;;;;3.76;48.99;99024.22;5367959;32;32969;-79
2024/01/15 09:56:28;;;;;;;;;;;;;;;3.93;48.87;99023.69;5383695;32;35376;-78
2024/01/15 09:59:30;;;;;;;;;;;;;;;3.93;47.93;99013.28;5394269;27;35510;-74
2024/01/15 10:02:33;;;;;;;;;;;;;;;3.61;49.30;99009.16;5357552;32;34192;-85
2024/01/15 10:05:35;;;;;;;;;;;;;;;4.01;48.61;98995.66;5388498;32;35320;-77
2024/01/15 10:08:37;;;;;;;;;;;;;;;4.22;47.67;98999.25;5369063;32;34738;-72
2024/01/15 10:11:43;;;;;;;;;;;;;;;3.87;48.12;98986.66;5385613;32;34150;-78
2024/01/15 10:14:46;;;;;;;;;;;;;;;3.58;48.75;98988.47;5369332;32;35658;-80
2024/01/15 10:17:48;;;;;;;;;;;;;;;3.97;48.10;98985.41;5386334;32;35469;-71
2024/01/15 10:20:52;;;;;;;;;;;;;;;4.40;47.61;98986.50;5352134;32;1085296;-69
2024/01/15 10:23:55;;;;;;;;;;;;;;;4.54;46.48;98976.44;5379473;32;34366;-75
2024/01/15 10:27:07;;;;;;;;;;;;;;;4.39;46.47;98971.81;5387268;32;35254;-77
2024/01/15 10:30:10;;;;;;;;;;;;;;;4.98;45.34;98960.91;5375944;32;35959;-71
2024/01/15 10:33:12;;;;;;;;;;;;;;;5.18;44.78;98955.75;5378099;32;32838;-70
2024/01/15 10:36:16;;;;;;;;;;;;;;;5.01;44.72;98950.34;5362138;32;36197;-68
2024/01/15 10:39:24;;;;;;;;;;;;;;;4.65;45.41;98958.69;5361108;32;36620;-70
2024/01/15 10:42:26;;;;;;;;;;;;;;;4.79;45.08;98956.41;5387577;32;34354;-72
2024/01/15 10:45:29;;;;;;;;;;;;;;;4.56;45.43;98952.03;5365423;32;34205;-66
2024/01/15 10:48:35;;;;;;;;;;;;;;;5.79;42.92;98953.22;5370564;32;33693;-69
2024/01/15 10:51:40;;;;;;;;;;;;;;;5.98;42.63;98954.16;5379444;32;35471;-73
2024/01/15 10:54:42;;;;;;;;;;;;;;;5.23;43.92;98963.38;5387723;32;33670;-87
2024/01/15 10:57:45;;;;;;;;;;;;;;;5.16;44.89;98961.03;5362014;32;34233;-87
2024/01/15 11:00:47;;;;;;;;;;;;;;;6.76;42.11;98952.41;5381807;32;33976;-72
2024/01/15 11:03:50;;;;;;;;;;;;;;;6.29;41.86;98952.81;5385384;32;34358;-70
2024/01/15 11:06:56;;;;;;;;;;;;;;;6.33;41.77;98949.16;5368664;32;34845;-74
2024/01/15 11:10:03;;;;;;;;;;;;;;;7.77;39.35;98940.53;5368377;32;35537;-72
2024/01/15 11:13:10;;;;;;;;;;;;;;;8.83;37.88;98941.09;5388857;32;34369;-78
2024/01/15 11:16:15;;;;;;;;;;;;;;;8.39;37.74;98936.47;5357238;32;35516;-78
2024/01/15 11:19:18;;;;;;;;;;;;;;;8.90;37.59;98936.38;5390081;32;34283;-80
2024/01/15 11:22:30;;;;;;;;;;;;;;;9.42;36.22;98926.41;5378892;32;34082;-78
2024/01/15 11:25:38;;;;;;;;;;;;;;;9.44;35.28;98921.91;5360633;32;35582;-77
2024/01/15 11:28:51;;;;;;;;;;;;;;;8.25;38.30;98918.00;5374123;32;34380;-81
2024/01/15 11:31:58;;;;;;;;;;;;;;;8.87;36.90;98919.03;5362498;32;33826;-82
2024/01/15 11:35:02;;;;;;;;;;;;;;;7.07;40.69;98934.37;5344076;32;36083;-70
2024/01/15 11:38:07;;;;;;;;;;;;;;;8.51;37.82;98921.91;5342762;32;35533;-78
2024/01/15 11:41:18;;;;;;;;;;;;;;;9.60;36.50;98911.37;5336965;32;36449;-76
2024/01/15 11:44:20;;;;;;;;;;;;;;;9.75;35.99;98905.22;5350508;32;35299;-77
2024/01/15 11:47:42;;;;;;;;;;;;;;;9.63;35.61;98907.72;5356875;32;34714;-82
2024/01/15 11:50:49;;;;;;;;;;;;;;;9.98;35.04;98906.50;5311907;32;34973;-74
2024/01/15 11:53:52;;;;;;;;;;;;;;;8.48;37.29;98915.97;5345170;32;36144;-82
2024/01/15 11:56:55;;;;;;;;;;;;;;;7.98;38.81;98901.97;5330937;32;34382;-76
2024/01/15 11:59:57;;;;;;;;;;;;;;;7.78;39.81;98892.53;5343643;32;35354;-68
2024/01/15 12:03:02;;;;;;;;;;;;;;;9.97;36.12;98873.28;5356360;32;34404;-77
2024/01/15 12:06:07;;;;;;;;;;;;;;;9.75;35.48;98873.75;5356601;32;34124;-77
2024/01/15 12:09:10;;;;;;;;;;;;;;;8.15;38.64;98891.47;5345084;32;34188;-72
2024/01/15 12:12:18;;;;;;;;;;;;;;;8.54;37.65;98887.66;5352610;32;35485;-69
2024/01/15 12:15:20;;;;;;;;;;;;;;;9.40;36.13;98888.06;5354646;32;35478;-73
2024/01/15 12:18:22;;;;;;;;;;;;;;;9.29;35.67;98885.25;5365853;32;34331;-76
2024/01/15 12:21:26;;;;;;;;;;;;;;;9.94;34.31;98880.50;5351657;32;35302;-75
2024/01/15 12:24:31;;;;;;;;;;;;;;;12.83;30.50;98856.94;5354713;32;35351;-73
2024/01/15 12:27:33;;;;;;;;;;;;;;;12.95;29.75;98861.31;5323257;32;35532;-71
2024/01/15 12:30:36;;;;;;;;;;;;;;;11.66;31.71;98853.69;5324700;32;34794;-74
2024/01/15 12:33:39;;;;;;;;;;;;;;;9.58;34.55;98855.53;5334717;32;35391;-73
2024/01/15 12:36:42;;;;;;;;;;;;;;;10.20;33.54;98832.50;5321719;32;34783;-77
2024/01/15 12:39:44;;;;;;;;;;;;;;;8.73;36.58;98845.59;5330498;32;34850;-68
2024/01/15 12:42:47;;;;;;;;;;;;;;;10.32;33.75;98838.81;5343328;32;34772;-72
2024/01/15 12:45:49;;;;;;;;;;;;;;;8.24;37.09;98852.63;5334864;32;37768;-85
2024/01/15 12:48:51;;;;;;;;;;;;;;;8.86;36.10;98835.28;5333947;32;33995;-79
2024/01/15 12:51:56;;;;;;;;;;;;;;;9.19;35.82;98827.25;5345410;32;35166;-77
2024/01/15 12:54:58;;;;;;;;;;;;;;;11.21;32.74;98820.78;5347277;32;34265;-73
2024/01/15 12:58:01;;;;;;;;;;;;;;;10.97;32.65;98828.50;5331157;32;34306;-69
2024/01/15 13:01:03;;;;;;;;;;;;;;;10.83;32.93;98836.44;5350456;32;34460;-72
2024/01/15 13:04:08;;;;;;;;;;;;;;;10.38;33.54;98822.69;5342512;32;34697;-72
2024/01/15 13:07:10;;;;;;;;;;;;;;;13.89;28.80;98802.34;5345888;32;35482;-74
2024/01/15 13:10:13;;;;;;;;;;;;;;;12.92;30.13;98814.06;5347186;32;35087;-72
2024/01/15 13:13:14;;;;;;;;;;;;;;;14.88;27.07;98822.69;5347747;32;34339;-76
2024/01/15 13:16:17;;;;;;;;;;;;;;;11.93;30.41;98835.19;5337535;32;34273;-71
2024/01/15 13:19:19;;;;;;;;;;;;;;;11.82;31.09;98827.19;5326063;32;35496;-77
2024/01/15 13:22:31;;;;;;;;;;;;;;;11.77;30.51;98839.78;5346959;32;34986;-76
2024/01/15 13:25:35;;;;;;;;;;;;;;;11.29;31.64;98834.28;5329022;32;34778;-77
2024/01/15 13:28:38;;;;;;;;;;;;;;;9.37;35.01;98838.44;5331675;32;32523;-79
2024/01/15 13:31:46;;;;;;;;;;;;;;;7.60;38.36;98842.03;5347650;32;35522;-72
2024/01/15 13:34:48;;;;;;;;;;;;;;;7.14;38.90;98848.72;5338228;32;36183;-75
2024/01/15 13:37:51;;;;;;;;;;;;;;;6.55;40.99;98846.41;5349812;32;34301;-74
2024/01/15 13:40:54;;;;;;;;;;;;;;;6.39;41.42;98865.37;5332875;32;34924;-72
2024/01/15 13:43:57;;;;;;;;;;;;;;;6.56;41.21;98861.12;5335151;32;34119;-77
2024/01/15 13:46:59;;;;;;;;;;;;;;;6.03;42.74;98867.03;5347101;32;33485;-77
2024/01/15 13:50:02;;;;;;;;;;;;;;;6.47;41.57;98858.03;5339634;32;36815;-66
2024/01/15 13:53:04;;;;;;;;;;;;;;;5.98;42.62;98865.47;5354785;32;33602;-73
2024/01/15 13:56:06;;;;;;;;;;;;;;;6.05;42.59;98875.66;5345865;32;35591;-75
2024/01/15 13:59:11;;;;;;;;;;;;;;;6.48;41.76;98861.50;5331461;32;34427;-71
2024/01/15 14:02:14;;;;;;;;;;;;;;;6.85;41.54;98872.81;5349124;32;33979;-83
2024/01/15 14:05:21;;;;;;;;;;;;;;;7.42;40.31;98850.81;5347449;32;33980;-71
2024/01/15 14:08:24;;;;;;;;;;;;;;;7.93;39.08;98861.28;5336776;32;34235;-72
2024/01/15 14:11:26;;;;;;;;;;;;;;;7.60;39.03;98852.50;5331885;32;34245;-75
2024/01/15 14:14:29;;;;;;;;;;;;;;;9.41;37.00;98832.94;5332093;32;35889;-87
2024/01/15 14:17:31;;;;;;;;;;;;;;;9.83;34.87;98840.94;5350222;32;34333;-73
2024/01/15 14:20:33;;;;;;;;;;;;;;;11.79;32.21;98832.66;5347873;32;34082;-75
2024/01/15 14:23:35;;;;;;;;;;;;;;;10.80;33.14;98847.16;5340853;32;34270;-72
2024/01/15 14:26:38;;;;;;;;;;;;;;;9.84;34.78;98850.50;5351671;32;34240;-71
2024/01/15 14:29:40;;;;;;;;;;;;;;;8.99;35.89;98867.72;5327122;32;33498;-71
2024/01/15 14:32:43;;;;;;;;;;;;;;;8.03;38.23;98865.94;5318289;32;35804;-74
2024/01/15 14:35:45;;;;;;;;;;;;;;;8.31;38.28;98864.50;5342193;32;35208;-69
2024/01/15 14:38:48;;;;;;;;;;;;;;;6.50;41.93;98867.47;5344177;32;34316;-74
2024/01/15 14:41:52;;;;;;;;;;;;;;;6.92;41.53;98862.00;5334034;32;34565;-74
2024/01/15 14:45:01;;;;;;;;;;;;;;;6.33;42.31;98870.88;5327980;32;34291;-77
2024/01/15 14:48:05;;;;;;;;;;;;;;;6.04;43.14;98863.53;5327004;32;34285;-73
2024/01/15 14:51:09;;;;;;;;;;;;;;;7.11;41.51;98863.72;5346993;32;35517;-79
2024/01/15 14:54:11;;;;;;;;;;;;;;;6.85;41.78;98870.22;5330705;32;35480;-90
2024/01/15 14:57:13;;;;;;;;;;;;;;;7.11;41.13;98882.84;5333721;32;37113;-83
2024/01/15 15:00:16;;;;;;;;;;;;;;;7.25;40.85;98876.94;5332135;32;37365;-75
2024/01/15 15:03:20;;;;;;;;;;;;;;;6.80;41.43;98870.41;5339380;32;34183;-71
2024/01/15 15:06:27;;;;;;;;;;;;;;;6.62;42.08;98869.53;5340720;32;35260;-73
2024/01/15 15:09:32;;;;;;;;;;;;;;;7.09;41.24;98878.63;5343860;32;35438;-73
2024/01/15 15:12:34;;;;;;;;;;;;;;;6.61;42.18;98874.81;5328126;32;36188;-75
2024/01/15 15:15:36;;;;;;;;;;;;;;;5.92;43.14;98868.34;5340729;32;34179;-74
2024/01/15 15:18:39;;;;;;;;;;;;;;;6.21;42.92;98871.44;5328764;32;35531;-81
2024/01/15 15:21:41;;;;;;;;;;;;;;;6.15;42.79;98867.34;5335428;32;34377;-72
2024/01/15 15:24:46;;;;;;;;;;;;;;;6.32;42.52;98856.16;5344228;32;35620;-84
2024/01/15 15:27:48;;;;;;;;;;;;;;;5.69;43.69;98869.34;5325547;32;34420;-74
2024/01/15 15:30:50;;;;;;;;;;;;;;;5.06;45.02;98868.53;5341557;32;34495;-74
2024/01/15 15:33:55;;;;;;;;;;;;;;;5.37;44.15;98862.91;5343538;32;35857;-72
2024/01/15 15:36:58;;;;;;;;;;;;;;;5.12;45.00;98862.22;5345756;32;35563;-69
2024/01/15 15:40:08;;;;;;;;;;;;;;;5.28;44.47;98863.31;5339175;32;35257;-69
2024/01/15 15:43:10;;;;;;;;;;;;;;;4.77;45.34;98871.47;5344029;32;36822;-78
2024/01/15 15:46:13;;;;;;;;;;;;;;;4.96;44.91;98866.34;5340651;32;36128;-68
2024/01/15 15:49:15;;;;;;;;;;;;;;;4.57;45.06;98872.22;5321323;32;33321;-79
2024/01/15 15:52:17;;;;;;;;;;;;;;;4.29;45.96;98869.84;5315829;32;35344;-71
2024/01/15 15:55:20;;;;;;;;;;;;;;;5.07;44.02;98853.75;5336304;32;34737;-81
2024/01/15 15:58:22;;;;;;;;;;;;;;;5.44;43.73;98861.72;5336796;32;35003;-69
2024/01/15 16:01:25;;;;;;;;;;;;;;;5.13;44.11;98875.19;5332605;32;35785;-77
2024/01/15 16:04:27;;;;;;;;;;;;;;;5.28;43.80;98878.06;5330259;32;35587;-79